CPX252 Details

Departure: Washington Dulles International Airport (KIAD)
Arrival: Chicago/Rockford International Airport (KRFD)
Route: BUNZZ3 RAMAY Q72 HACKS J149 FWA V340 OXI JOT


Current Weather Information
KIAD 200952Z 14003KT 10SM OVC250 M03/M06 A3038 RMK AO2 SLP289 T10281061
KRFD 200954Z 21003KT 10SM SCT055 BKN075 OVC095 05/01 A3012 RMK AO2 SLP204 T00500006